createdAt,value
2022-12-27T00:00:33.566Z,84.46
2022-12-27T00:05:35.289Z,84.54
2022-12-27T00:10:37.256Z,84.45
2022-12-27T00:15:38.960Z,84.19
2022-12-27T00:20:40.667Z,83.87
2022-12-27T00:25:42.542Z,83.61
2022-12-27T00:30:44.306Z,83.35
2022-12-27T00:35:45.957Z,83.05
2022-12-27T00:40:48.083Z,82.85
2022-12-27T00:45:50.435Z,82.76
2022-12-27T00:50:58.716Z,82.78
2022-12-27T00:56:01.165Z,82.90
2022-12-27T01:01:15.575Z,83.07
2022-12-27T01:06:21.485Z,83.22
2022-12-27T01:11:24.433Z,83.23
2022-12-27T01:16:28.346Z,83.16
2022-12-27T01:21:31.043Z,83.25
2022-12-27T01:26:32.798Z,83.31
2022-12-27T01:31:35.618Z,83.65
2022-12-27T01:36:37.530Z,84.34
2022-12-27T01:42:01.731Z,84.96
2022-12-27T01:47:05.703Z,85.50
2022-12-27T01:52:11.271Z,85.81
2022-12-27T01:57:13.019Z,85.94
2022-12-27T02:02:15.089Z,86.01
2022-12-27T02:07:18.597Z,86.07
2022-12-27T02:12:21.260Z,86.01
2022-12-27T02:17:27.132Z,86.00
2022-12-27T02:23:05.754Z,86.00
2022-12-27T02:28:30.522Z,86.02
2022-12-27T02:33:38.956Z,85.99
2022-12-27T02:38:45.237Z,85.97
2022-12-27T02:44:06.298Z,85.95
2022-12-27T02:49:53.753Z,85.93
2022-12-27T02:55:08.295Z,85.96
2022-12-27T03:00:39.151Z,86.21
2022-12-27T03:06:17.866Z,86.59
2022-12-27T03:11:38.885Z,86.83
2022-12-27T03:16:55.756Z,86.75
2022-12-27T03:22:17.297Z,86.35
2022-12-27T03:27:32.267Z,86.01
2022-12-27T03:32:58.405Z,85.62
2022-12-27T03:38:05.257Z,85.29
2022-12-27T03:43:16.188Z,85.58
2022-12-27T03:48:22.746Z,85.37
2022-12-27T03:53:38.367Z,85.96
2022-12-27T03:58:40.273Z,86.13
2022-12-27T04:03:42.198Z,86.85
2022-12-27T04:09:02.758Z,87.29
2022-12-27T04:14:23.153Z,87.43
2022-12-27T04:19:43.613Z,87.61
2022-12-27T04:25:04.266Z,87.73
2022-12-27T04:30:25.332Z,87.38
2022-12-27T04:35:27.189Z,87.62
2022-12-27T04:40:47.655Z,87.62
2022-12-27T04:46:08.371Z,87.63
2022-12-27T04:51:28.969Z,87.75
2022-12-27T04:56:30.680Z,87.76
2022-12-27T05:01:50.975Z,87.83
2022-12-27T05:06:53.515Z,87.86
2022-12-27T05:12:14.025Z,87.86
2022-12-27T05:17:16.001Z,88.05
2022-12-27T05:22:36.452Z,88.10
2022-12-27T05:27:38.154Z,88.15
2022-12-27T05:32:39.805Z,88.30
2022-12-27T05:37:41.492Z,88.40
2022-12-27T05:42:43.205Z,88.61
2022-12-27T05:47:45.108Z,88.68
2022-12-27T05:52:46.968Z,88.71
2022-12-27T05:57:48.773Z,88.68
2022-12-27T06:02:50.583Z,88.56
2022-12-27T06:07:52.462Z,88.24
2022-12-27T06:12:54.138Z,88.24
2022-12-27T06:17:56.153Z,88.71
2022-12-27T06:23:00.232Z,88.79
2022-12-27T06:28:02.064Z,88.40
2022-12-27T06:33:03.865Z,87.74
2022-12-27T06:38:05.626Z,87.52
2022-12-27T06:43:07.491Z,87.14
2022-12-27T06:48:09.302Z,86.49
2022-12-27T06:53:11.039Z,86.27
2022-12-27T06:58:13.721Z,86.21
2022-12-27T07:03:15.452Z,86.12
2022-12-27T07:08:17.371Z,85.99
2022-12-27T07:13:19.491Z,85.82
2022-12-27T07:18:21.208Z,85.75
2022-12-27T07:23:22.939Z,85.85
2022-12-27T07:28:25.230Z,86.05
2022-12-27T07:33:26.926Z,86.16
2022-12-27T07:38:29.022Z,85.92
2022-12-27T07:43:33.723Z,85.61
2022-12-27T07:48:36.490Z,85.37
2022-12-27T07:53:38.211Z,85.15
2022-12-27T07:58:42.508Z,85.03
2022-12-27T08:03:44.807Z,84.91
2022-12-27T08:08:47.417Z,84.55
2022-12-27T08:13:49.375Z,84.15
2022-12-27T08:18:53.131Z,83.75
2022-12-27T08:23:54.928Z,83.44
2022-12-27T08:28:56.740Z,82.95
2022-12-27T08:33:58.925Z,82.56
2022-12-27T08:39:00.860Z,81.96
2022-12-27T08:44:02.577Z,81.42
2022-12-27T08:49:05.321Z,80.68
2022-12-27T08:54:07.252Z,80.38
2022-12-27T08:59:08.928Z,79.96
2022-12-27T09:04:10.692Z,79.52
2022-12-27T09:09:13.646Z,78.94
2022-12-27T09:14:15.402Z,78.89
2022-12-27T09:19:17.145Z,78.32
2022-12-27T09:24:19.002Z,77.27
2022-12-27T09:29:21.196Z,77.06
2022-12-27T09:34:22.887Z,76.80
2022-12-27T09:39:24.554Z,76.35
2022-12-27T09:44:47.575Z,76.08
2022-12-27T09:49:55.208Z,74.42
2022-12-27T09:55:05.385Z,73.30
2022-12-27T10:00:35.018Z,73.28
2022-12-27T10:05:39.648Z,73.36
2022-12-27T10:10:57.032Z,70.67
2022-12-27T10:16:27.867Z,70.07
2022-12-27T10:21:34.368Z,69.84
2022-12-27T10:26:38.669Z,68.64
2022-12-27T10:31:43.039Z,68.17
2022-12-27T10:36:45.463Z,68.26
2022-12-27T10:42:10.079Z,69.57
2022-12-27T10:47:11.807Z,68.30
2022-12-27T10:52:21.568Z,67.71
2022-12-27T10:57:33.463Z,66.03
2022-12-27T11:02:35.533Z,65.69
2022-12-27T11:07:37.782Z,65.20
2022-12-27T11:12:39.461Z,63.77
2022-12-27T11:17:50.258Z,61.79
2022-12-27T11:23:10.193Z,60.82
2022-12-27T11:28:34.363Z,61.23
2022-12-27T11:33:41.176Z,59.62
2022-12-27T11:38:45.082Z,60.79
2022-12-27T11:44:06.008Z,58.79
2022-12-27T11:49:17.912Z,57.74
2022-12-27T11:54:41.501Z,57.14
2022-12-27T12:00:06.689Z,57.57
2022-12-27T12:05:33.439Z,58.70
2022-12-27T12:10:44.244Z,58.18
2022-12-27T12:16:17.698Z,58.77
2022-12-27T12:21:41.243Z,59.94
2022-12-27T12:27:08.116Z,59.53
2022-12-27T12:32:45.552Z,58.45
2022-12-27T12:37:57.092Z,58.23
2022-12-27T12:43:16.999Z,56.90
2022-12-27T12:48:24.510Z,57.66
2022-12-27T12:53:49.018Z,57.77
2022-12-27T12:59:13.260Z,57.64
2022-12-27T13:04:49.772Z,57.47
2022-12-27T13:10:00.698Z,57.61
2022-12-27T13:15:17.975Z,58.37
2022-12-27T13:20:28.557Z,58.46
2022-12-27T13:25:58.785Z,58.26
2022-12-27T13:31:07.752Z,59.39
2022-12-27T13:36:24.440Z,59.79
2022-12-27T13:41:30.567Z,60.66
2022-12-27T13:47:18.563Z,61.37
2022-12-27T13:52:46.505Z,61.73
2022-12-27T13:58:08.993Z,62.08
2022-12-27T14:03:43.456Z,62.56
2022-12-27T14:09:10.230Z,62.63
2022-12-27T14:14:16.723Z,62.31
2022-12-27T14:19:41.633Z,62.79
2022-12-27T14:25:14.793Z,62.72
2022-12-27T14:30:38.527Z,63.33
2022-12-27T14:36:17.898Z,63.76
2022-12-27T14:41:54.062Z,63.93
2022-12-27T14:47:18.099Z,63.99
2022-12-27T14:52:44.239Z,64.15
2022-12-27T14:57:55.566Z,64.52
2022-12-27T15:03:17.835Z,65.35
2022-12-27T15:08:40.808Z,65.75
2022-12-27T15:14:17.679Z,65.77
2022-12-27T15:19:40.338Z,65.47
2022-12-27T15:25:06.095Z,65.37
2022-12-27T15:30:20.961Z,65.60
2022-12-27T15:35:33.533Z,66.07
2022-12-27T15:40:35.156Z,66.05
2022-12-27T15:46:08.119Z,66.11
2022-12-27T15:51:23.367Z,65.75
2022-12-27T15:57:03.630Z,66.12
2022-12-27T16:02:17.789Z,66.36
2022-12-27T16:07:52.197Z,66.62
2022-12-27T16:12:55.933Z,67.05
2022-12-27T16:17:57.738Z,67.21
2022-12-27T16:23:02.681Z,67.39
2022-12-27T16:28:16.260Z,67.54
2022-12-27T16:33:27.156Z,67.54
2022-12-27T16:38:31.942Z,67.58
2022-12-27T16:43:49.151Z,67.44
2022-12-27T16:49:34.371Z,67.65
2022-12-27T16:55:20.453Z,67.54
2022-12-27T17:00:42.481Z,67.60
2022-12-27T17:06:21.775Z,68.06
2022-12-27T17:11:39.032Z,67.87
2022-12-27T17:16:46.325Z,68.12
2022-12-27T17:21:56.731Z,68.40
2022-12-27T17:27:16.423Z,68.08
2022-12-27T17:32:39.967Z,67.94
2022-12-27T17:38:06.395Z,67.94
2022-12-27T17:43:56.738Z,68.12
2022-12-27T17:48:58.807Z,68.38
2022-12-27T17:54:42.790Z,68.53
2022-12-27T17:59:50.306Z,68.98
2022-12-27T18:04:56.186Z,69.17
2022-12-27T18:10:05.959Z,69.48
2022-12-27T18:15:26.173Z,69.82
2022-12-27T18:20:28.085Z,69.90
2022-12-27T18:25:32.714Z,70.24
2022-12-27T18:30:41.211Z,70.92
2022-12-27T18:35:48.156Z,71.41
2022-12-27T18:41:05.611Z,71.78
2022-12-27T18:46:12.516Z,72.10
2022-12-27T18:51:15.071Z,72.28
2022-12-27T18:56:32.856Z,72.42
2022-12-27T19:01:41.948Z,72.74
2022-12-27T19:06:55.999Z,73.13
2022-12-27T19:12:01.793Z,73.42
2022-12-27T19:17:10.628Z,73.85
2022-12-27T19:22:36.857Z,74.28
2022-12-27T19:27:38.694Z,74.66
2022-12-27T19:32:40.430Z,74.90
2022-12-27T19:37:42.111Z,75.20
2022-12-27T19:42:45.532Z,75.41
2022-12-27T19:47:50.671Z,75.64
2022-12-27T19:52:54.056Z,75.81
2022-12-27T19:57:57.069Z,75.99
2022-12-27T20:02:58.955Z,76.38
2022-12-27T20:08:00.809Z,76.47
2022-12-27T20:13:02.620Z,76.73
2022-12-27T20:18:04.299Z,77.02
2022-12-27T20:23:06.058Z,77.41
2022-12-27T20:28:08.274Z,77.81
2022-12-27T20:33:10.403Z,78.26
2022-12-27T20:38:12.643Z,78.37
2022-12-27T20:43:14.777Z,78.57
2022-12-27T20:48:16.570Z,78.63
2022-12-27T20:53:18.498Z,78.65
2022-12-27T20:58:20.208Z,78.93
2022-12-27T21:03:22.114Z,79.20
2022-12-27T21:08:23.820Z,79.53
2022-12-27T21:15:53.908Z,79.72
2022-12-27T21:21:19.716Z,80.79
2022-12-27T21:26:25.360Z,80.91
2022-12-27T21:31:27.896Z,80.42
2022-12-27T21:36:32.144Z,79.93
2022-12-27T21:41:36.251Z,79.76
2022-12-27T21:46:40.671Z,79.40
2022-12-27T21:51:44.056Z,79.11
2022-12-27T21:56:46.213Z,78.94
2022-12-27T22:01:51.416Z,78.91
2022-12-27T22:06:54.334Z,78.71
2022-12-27T22:11:56.067Z,78.69
2022-12-27T22:17:00.201Z,78.53
2022-12-27T22:22:01.900Z,78.62
2022-12-27T22:27:03.701Z,78.59
2022-12-27T22:32:06.109Z,78.38
2022-12-27T22:37:07.820Z,78.32
2022-12-27T22:42:09.492Z,78.20
2022-12-27T22:47:27.946Z,78.47
2022-12-27T22:52:30.199Z,78.52
2022-12-27T22:57:31.867Z,78.76
2022-12-27T23:02:33.658Z,78.83
2022-12-27T23:08:05.653Z,78.86
2022-12-27T23:12:57.146Z,78.94
2022-12-27T23:17:59.067Z,78.95
2022-12-27T23:23:00.736Z,79.08
2022-12-27T23:28:02.406Z,78.90
2022-12-27T23:33:04.232Z,79.03
2022-12-27T23:38:06.159Z,78.93
2022-12-27T23:43:42.030Z,78.73
2022-12-27T23:48:29.473Z,78.72
2022-12-27T23:53:31.200Z,78.82
2022-12-27T23:58:33.518Z,78.86
